sensor_id;sensor_type;location;lat;lon;timestamp;temperature;humidity
15765;DHT22;7983;50.744;7.086;2023-04-10T00:00:27;9.70;99.90
15765;DHT22;7983;50.744;7.086;2023-04-10T00:02:53;9.70;99.90
15765;DHT22;7983;50.744;7.086;2023-04-10T00:05:21;9.70;99.90
15765;DHT22;7983;50.744;7.086;2023-04-10T00:07:47;9.60;99.90
15765;DHT22;7983;50.744;7.086;2023-04-10T00:10:12;9.60;99.90
15765;DHT22;7983;50.744;7.086;2023-04-10T00:12:40;9.60;99.90
15765;DHT22;7983;50.744;7.086;2023-04-10T00:15:06;9.60;99.90
15765;DHT22;7983;50.744;7.086;2023-04-10T00:17:32;9.60;99.90
15765;DHT22;7983;50.744;7.086;2023-04-10T00:20:01;9.50;99.90
15765;DHT22;7983;50.744;7.086;2023-04-10T00:22:26;9.50;99.90
15765;DHT22;7983;50.744;7.086;2023-04-10T00:24:52;9.50;99.90
15765;DHT22;7983;50.744;7.086;2023-04-10T00:27:18;9.50;99.90
15765;DHT22;7983;50.744;7.086;2023-04-10T00:29:44;9.50;99.90
15765;DHT22;7983;50.744;7.086;2023-04-10T00:32:09;9.40;99.90
15765;DHT22;7983;50.744;7.086;2023-04-10T00:34:35;9.50;99.90
15765;DHT22;7983;50.744;7.086;2023-04-10T00:37:00;9.60;99.90
15765;DHT22;7983;50.744;7.086;2023-04-10T00:39:26;9.40;99.90
15765;DHT22;7983;50.744;7.086;2023-04-10T00:41:54;9.40;99.90
15765;DHT22;7983;50.744;7.086;2023-04-10T00:44:20;9.40;99.90
15765;DHT22;7983;50.744;7.086;2023-04-10T00:46:45;9.50;99.90
15765;DHT22;7983;50.744;7.086;2023-04-10T00:49:11;9.30;99.90
15765;DHT22;7983;50.744;7.086;2023-04-10T00:51:39;9.40;99.90
15765;DHT22;7983;50.744;7.086;2023-04-10T00:54:09;9.30;99.90
15765;DHT22;7983;50.744;7.086;2023-04-10T00:56:39;9.30;99.90
15765;DHT22;7983;50.744;7.086;2023-04-10T00:59:04;9.20;99.90
15765;DHT22;7983;50.744;7.086;2023-04-10T01:01:30;9.30;99.90
15765;DHT22;7983;50.744;7.086;2023-04-10T01:03:58;9.20;99.90
15765;DHT22;7983;50.744;7.086;2023-04-10T01:06:52;9.30;99.90
15765;DHT22;7983;50.744;7.086;2023-04-10T01:09:41;9.20;99.90
15765;DHT22;7983;50.744;7.086;2023-04-10T01:15:12;9.20;99.90
15765;DHT22;7983;50.744;7.086;2023-04-10T01:17:55;9.10;99.90
15765;DHT22;7983;50.744;7.086;2023-04-10T01:20:23;9.10;99.90
15765;DHT22;7983;50.744;7.086;2023-04-10T01:30:46;9.10;99.90
15765;DHT22;7983;50.744;7.086;2023-04-10T01:33:15;9.10;99.90
15765;DHT22;7983;50.744;7.086;2023-04-10T01:35:44;9.10;99.90
15765;DHT22;7983;50.744;7.086;2023-04-10T01:38:11;9.10;99.90
15765;DHT22;7983;50.744;7.086;2023-04-10T01:40:38;9.00;99.90
15765;DHT22;7983;50.744;7.086;2023-04-10T01:43:09;9.00;99.90
15765;DHT22;7983;50.744;7.086;2023-04-10T01:45:36;9.00;99.90
15765;DHT22;7983;50.744;7.086;2023-04-10T01:48:03;9.10;99.90
15765;DHT22;7983;50.744;7.086;2023-04-10T01:50:30;9.00;99.90
15765;DHT22;7983;50.744;7.086;2023-04-10T01:52:56;8.90;99.90
15765;DHT22;7983;50.744;7.086;2023-04-10T01:55:25;8.90;99.90
15765;DHT22;7983;50.744;7.086;2023-04-10T01:57:54;8.80;99.90
15765;DHT22;7983;50.744;7.086;2023-04-10T02:00:22;8.80;99.90
15765;DHT22;7983;50.744;7.086;2023-04-10T02:02:48;8.80;99.90
15765;DHT22;7983;50.744;7.086;2023-04-10T02:05:17;8.70;99.90
15765;DHT22;7983;50.744;7.086;2023-04-10T02:08:08;8.80;99.90
15765;DHT22;7983;50.744;7.086;2023-04-10T02:10:41;8.70;99.90
15765;DHT22;7983;50.744;7.086;2023-04-10T02:13:16;8.70;99.90
15765;DHT22;7983;50.744;7.086;2023-04-10T02:15:49;8.70;99.90
15765;DHT22;7983;50.744;7.086;2023-04-10T02:18:18;8.70;99.90
15765;DHT22;7983;50.744;7.086;2023-04-10T02:20:47;8.80;99.90
15765;DHT22;7983;50.744;7.086;2023-04-10T02:23:20;8.80;99.90
15765;DHT22;7983;50.744;7.086;2023-04-10T02:25:46;8.70;99.90
15765;DHT22;7983;50.744;7.086;2023-04-10T02:28:17;8.80;99.90
15765;DHT22;7983;50.744;7.086;2023-04-10T02:30:44;8.70;99.90
15765;DHT22;7983;50.744;7.086;2023-04-10T02:33:10;8.80;99.90
15765;DHT22;7983;50.744;7.086;2023-04-10T02:35:36;8.80;99.90
15765;DHT22;7983;50.744;7.086;2023-04-10T02:38:02;8.80;99.90
15765;DHT22;7983;50.744;7.086;2023-04-10T02:40:27;8.80;99.90
15765;DHT22;7983;50.744;7.086;2023-04-10T02:42:55;8.80;99.90
15765;DHT22;7983;50.744;7.086;2023-04-10T02:45:21;8.80;99.90
15765;DHT22;7983;50.744;7.086;2023-04-10T02:47:48;8.80;99.90
15765;DHT22;7983;50.744;7.086;2023-04-10T02:50:14;8.80;99.90
15765;DHT22;7983;50.744;7.086;2023-04-10T02:52:41;8.80;99.90
15765;DHT22;7983;50.744;7.086;2023-04-10T02:55:10;8.80;99.90
15765;DHT22;7983;50.744;7.086;2023-04-10T02:57:36;8.80;99.90
15765;DHT22;7983;50.744;7.086;2023-04-10T03:00:04;8.80;99.90
15765;DHT22;7983;50.744;7.086;2023-04-10T03:02:30;8.70;99.90
15765;DHT22;7983;50.744;7.086;2023-04-10T03:05:01;8.80;99.90
15765;DHT22;7983;50.744;7.086;2023-04-10T03:07:27;8.80;99.90
15765;DHT22;7983;50.744;7.086;2023-04-10T03:09:55;8.70;99.90
15765;DHT22;7983;50.744;7.086;2023-04-10T03:12:23;8.70;99.90
15765;DHT22;7983;50.744;7.086;2023-04-10T03:14:51;8.70;99.90
15765;DHT22;7983;50.744;7.086;2023-04-10T03:17:17;8.60;99.90
15765;DHT22;7983;50.744;7.086;2023-04-10T03:19:43;8.60;99.90
15765;DHT22;7983;50.744;7.086;2023-04-10T03:22:10;8.60;99.90
15765;DHT22;7983;50.744;7.086;2023-04-10T03:24:36;8.60;99.90
15765;DHT22;7983;50.744;7.086;2023-04-10T03:27:05;8.50;99.90
15765;DHT22;7983;50.744;7.086;2023-04-10T03:29:31;8.50;99.90
15765;DHT22;7983;50.744;7.086;2023-04-10T03:31:59;8.40;99.90
15765;DHT22;7983;50.744;7.086;2023-04-10T03:34:27;8.30;99.90
15765;DHT22;7983;50.744;7.086;2023-04-10T03:36:54;8.30;99.90
15765;DHT22;7983;50.744;7.086;2023-04-10T03:39:20;8.30;99.90
15765;DHT22;7983;50.744;7.086;2023-04-10T03:41:46;8.30;99.90
15765;DHT22;7983;50.744;7.086;2023-04-10T03:44:11;8.20;99.90
15765;DHT22;7983;50.744;7.086;2023-04-10T03:46:37;8.20;99.90
15765;DHT22;7983;50.744;7.086;2023-04-10T03:49:03;8.20;99.90
15765;DHT22;7983;50.744;7.086;2023-04-10T03:51:31;8.20;99.90
15765;DHT22;7983;50.744;7.086;2023-04-10T03:53:56;8.10;99.90
15765;DHT22;7983;50.744;7.086;2023-04-10T03:56:22;8.00;99.90
15765;DHT22;7983;50.744;7.086;2023-04-10T03:58:47;8.10;99.90
15765;DHT22;7983;50.744;7.086;2023-04-10T04:01:13;8.00;99.90
15765;DHT22;7983;50.744;7.086;2023-04-10T04:03:39;8.00;99.90
15765;DHT22;7983;50.744;7.086;2023-04-10T04:06:07;7.90;99.90
15765;DHT22;7983;50.744;7.086;2023-04-10T04:08:33;7.90;99.90
15765;DHT22;7983;50.744;7.086;2023-04-10T04:11:00;7.90;99.90
15765;DHT22;7983;50.744;7.086;2023-04-10T04:13:26;7.90;99.90
15765;DHT22;7983;50.744;7.086;2023-04-10T04:15:54;7.90;99.90
15765;DHT22;7983;50.744;7.086;2023-04-10T04:18:21;7.90;99.90
15765;DHT22;7983;50.744;7.086;2023-04-10T04:20:49;7.80;99.90
15765;DHT22;7983;50.744;7.086;2023-04-10T04:23:18;7.80;99.90
15765;DHT22;7983;50.744;7.086;2023-04-10T04:25:45;7.80;99.90
15765;DHT22;7983;50.744;7.086;2023-04-10T04:28:14;7.80;99.90
15765;DHT22;7983;50.744;7.086;2023-04-10T04:30:40;7.80;99.90
15765;DHT22;7983;50.744;7.086;2023-04-10T04:33:08;7.70;99.90
15765;DHT22;7983;50.744;7.086;2023-04-10T04:35:33;7.80;99.90
15765;DHT22;7983;50.744;7.086;2023-04-10T04:37:59;7.70;99.90
15765;DHT22;7983;50.744;7.086;2023-04-10T04:40:25;7.70;99.90
15765;DHT22;7983;50.744;7.086;2023-04-10T04:42:50;7.60;99.90
15765;DHT22;7983;50.744;7.086;2023-04-10T04:45:18;7.70;99.90
15765;DHT22;7983;50.744;7.086;2023-04-10T04:47:46;7.60;99.90
15765;DHT22;7983;50.744;7.086;2023-04-10T04:50:14;7.60;99.90
15765;DHT22;7983;50.744;7.086;2023-04-10T04:52:39;7.60;99.90
15765;DHT22;7983;50.744;7.086;2023-04-10T04:55:06;7.60;99.90
15765;DHT22;7983;50.744;7.086;2023-04-10T04:57:32;7.60;99.90
15765;DHT22;7983;50.744;7.086;2023-04-10T04:59:57;7.60;99.90
15765;DHT22;7983;50.744;7.086;2023-04-10T05:02:25;7.60;99.90
15765;DHT22;7983;50.744;7.086;2023-04-10T05:04:51;7.60;99.90
15765;DHT22;7983;50.744;7.086;2023-04-10T05:07:16;7.60;99.90
15765;DHT22;7983;50.744;7.086;2023-04-10T05:09:42;7.60;99.90
15765;DHT22;7983;50.744;7.086;2023-04-10T05:12:10;7.70;99.90
15765;DHT22;7983;50.744;7.086;2023-04-10T05:14:35;7.60;99.90
15765;DHT22;7983;50.744;7.086;2023-04-10T05:17:01;7.60;99.90
15765;DHT22;7983;50.744;7.086;2023-04-10T05:19:27;7.60;99.90
15765;DHT22;7983;50.744;7.086;2023-04-10T05:21:52;7.60;99.90
15765;DHT22;7983;50.744;7.086;2023-04-10T05:24:18;7.60;99.90
15765;DHT22;7983;50.744;7.086;2023-04-10T05:26:43;7.70;99.90
15765;DHT22;7983;50.744;7.086;2023-04-10T05:29:09;7.70;99.90
15765;DHT22;7983;50.744;7.086;2023-04-10T05:31:37;7.70;99.90
15765;DHT22;7983;50.744;7.086;2023-04-10T05:34:03;7.80;99.90
15765;DHT22;7983;50.744;7.086;2023-04-10T05:36:28;7.90;99.90
15765;DHT22;7983;50.744;7.086;2023-04-10T05:38:54;7.90;99.90
15765;DHT22;7983;50.744;7.086;2023-04-10T05:41:20;8.00;99.90
15765;DHT22;7983;50.744;7.086;2023-04-10T05:43:48;8.10;99.90
15765;DHT22;7983;50.744;7.086;2023-04-10T05:46:17;8.10;99.90
15765;DHT22;7983;50.744;7.086;2023-04-10T05:48:42;8.20;99.90
15765;DHT22;7983;50.744;7.086;2023-04-10T05:51:08;8.40;99.90
15765;DHT22;7983;50.744;7.086;2023-04-10T05:53:33;8.40;99.90
15765;DHT22;7983;50.744;7.086;2023-04-10T05:55:59;8.50;99.90
15765;DHT22;7983;50.744;7.086;2023-04-10T05:58:26;8.50;99.90
15765;DHT22;7983;50.744;7.086;2023-04-10T06:00:57;8.60;99.90
15765;DHT22;7983;50.744;7.086;2023-04-10T06:03:22;8.80;99.90
15765;DHT22;7983;50.744;7.086;2023-04-10T06:05:52;8.90;99.90
15765;DHT22;7983;50.744;7.086;2023-04-10T06:08:17;9.00;99.90
15765;DHT22;7983;50.744;7.086;2023-04-10T06:10:47;9.10;99.90
15765;DHT22;7983;50.744;7.086;2023-04-10T06:13:12;9.10;99.90
15765;DHT22;7983;50.744;7.086;2023-04-10T06:15:39;9.20;99.90
15765;DHT22;7983;50.744;7.086;2023-04-10T06:18:05;9.20;99.90
15765;DHT22;7983;50.744;7.086;2023-04-10T06:20:33;9.30;99.90
15765;DHT22;7983;50.744;7.086;2023-04-10T06:22:59;9.40;99.90
15765;DHT22;7983;50.744;7.086;2023-04-10T06:25:25;9.30;99.90
15765;DHT22;7983;50.744;7.086;2023-04-10T06:27:51;9.60;99.90
15765;DHT22;7983;50.744;7.086;2023-04-10T06:30:19;9.50;99.90
15765;DHT22;7983;50.744;7.086;2023-04-10T06:32:44;9.60;99.90
15765;DHT22;7983;50.744;7.086;2023-04-10T06:35:10;9.70;99.90
15765;DHT22;7983;50.744;7.086;2023-04-10T06:37:38;9.70;99.90
15765;DHT22;7983;50.744;7.086;2023-04-10T06:40:09;9.80;99.90
15765;DHT22;7983;50.744;7.086;2023-04-10T06:42:37;9.80;99.90
15765;DHT22;7983;50.744;7.086;2023-04-10T06:45:03;9.90;99.90
15765;DHT22;7983;50.744;7.086;2023-04-10T06:47:31;10.00;99.90
15765;DHT22;7983;50.744;7.086;2023-04-10T06:49:57;10.10;99.90
15765;DHT22;7983;50.744;7.086;2023-04-10T06:52:25;10.10;99.90
15765;DHT22;7983;50.744;7.086;2023-04-10T06:54:50;10.20;99.90
15765;DHT22;7983;50.744;7.086;2023-04-10T06:57:16;10.30;99.90
15765;DHT22;7983;50.744;7.086;2023-04-10T06:59:43;10.40;99.90
15765;DHT22;7983;50.744;7.086;2023-04-10T07:02:09;10.40;99.90
15765;DHT22;7983;50.744;7.086;2023-04-10T07:04:34;10.60;99.90
15765;DHT22;7983;50.744;7.086;2023-04-10T07:07:01;10.60;99.90
15765;DHT22;7983;50.744;7.086;2023-04-10T07:09:29;10.70;99.90
15765;DHT22;7983;50.744;7.086;2023-04-10T07:11:58;10.80;99.90
15765;DHT22;7983;50.744;7.086;2023-04-10T07:14:28;10.80;99.90
15765;DHT22;7983;50.744;7.086;2023-04-10T07:16:54;11.00;99.90
15765;DHT22;7983;50.744;7.086;2023-04-10T07:19:20;11.00;99.90
15765;DHT22;7983;50.744;7.086;2023-04-10T07:21:48;11.10;99.90
15765;DHT22;7983;50.744;7.086;2023-04-10T07:24:17;11.20;99.90
15765;DHT22;7983;50.744;7.086;2023-04-10T07:26:43;11.30;99.90
15765;DHT22;7983;50.744;7.086;2023-04-10T07:29:12;11.40;99.90
15765;DHT22;7983;50.744;7.086;2023-04-10T07:31:38;11.50;99.90
15765;DHT22;7983;50.744;7.086;2023-04-10T07:34:09;11.60;99.90
15765;DHT22;7983;50.744;7.086;2023-04-10T07:36:35;11.70;99.90
15765;DHT22;7983;50.744;7.086;2023-04-10T07:39:01;11.80;99.90
15765;DHT22;7983;50.744;7.086;2023-04-10T07:41:27;11.90;99.90
15765;DHT22;7983;50.744;7.086;2023-04-10T07:43:57;11.90;99.90
15765;DHT22;7983;50.744;7.086;2023-04-10T07:46:26;12.10;99.90
15765;DHT22;7983;50.744;7.086;2023-04-10T07:48:52;12.20;99.90
15765;DHT22;7983;50.744;7.086;2023-04-10T07:51:19;12.30;99.90
15765;DHT22;7983;50.744;7.086;2023-04-10T07:53:45;12.40;99.90
15765;DHT22;7983;50.744;7.086;2023-04-10T07:56:17;12.40;99.90
15765;DHT22;7983;50.744;7.086;2023-04-10T07:58:43;12.50;99.90
15765;DHT22;7983;50.744;7.086;2023-04-10T08:01:09;12.60;99.90
15765;DHT22;7983;50.744;7.086;2023-04-10T08:03:43;12.70;99.90
15765;DHT22;7983;50.744;7.086;2023-04-10T08:06:12;12.70;99.90
15765;DHT22;7983;50.744;7.086;2023-04-10T08:08:39;12.80;99.90
15765;DHT22;7983;50.744;7.086;2023-04-10T08:11:07;12.90;99.90
15765;DHT22;7983;50.744;7.086;2023-04-10T08:13:45;12.90;99.90
15765;DHT22;7983;50.744;7.086;2023-04-10T08:16:14;12.90;99.90
15765;DHT22;7983;50.744;7.086;2023-04-10T08:18:39;13.00;99.90
15765;DHT22;7983;50.744;7.086;2023-04-10T08:21:08;13.00;99.90
15765;DHT22;7983;50.744;7.086;2023-04-10T08:23:35;13.10;99.90
15765;DHT22;7983;50.744;7.086;2023-04-10T08:26:01;13.10;99.90
15765;DHT22;7983;50.744;7.086;2023-04-10T08:28:27;13.20;99.90
15765;DHT22;7983;50.744;7.086;2023-04-10T08:30:56;13.30;99.90
15765;DHT22;7983;50.744;7.086;2023-04-10T08:33:22;13.30;99.90
15765;DHT22;7983;50.744;7.086;2023-04-10T08:35:48;13.40;99.90
15765;DHT22;7983;50.744;7.086;2023-04-10T08:38:16;13.50;99.90
15765;DHT22;7983;50.744;7.086;2023-04-10T08:40:42;13.60;99.90
15765;DHT22;7983;50.744;7.086;2023-04-10T08:43:08;13.70;99.90
15765;DHT22;7983;50.744;7.086;2023-04-10T08:45:38;13.80;99.90
15765;DHT22;7983;50.744;7.086;2023-04-10T08:48:05;14.00;99.90
15765;DHT22;7983;50.744;7.086;2023-04-10T08:50:33;14.10;99.90
15765;DHT22;7983;50.744;7.086;2023-04-10T08:53:08;14.10;99.90
15765;DHT22;7983;50.744;7.086;2023-04-10T08:55:35;14.30;99.90
15765;DHT22;7983;50.744;7.086;2023-04-10T08:58:02;14.30;99.90
15765;DHT22;7983;50.744;7.086;2023-04-10T09:00:32;14.40;99.90
15765;DHT22;7983;50.744;7.086;2023-04-10T09:02:59;14.40;99.90
15765;DHT22;7983;50.744;7.086;2023-04-10T09:05:28;14.50;99.90
15765;DHT22;7983;50.744;7.086;2023-04-10T09:07:54;14.60;99.90
15765;DHT22;7983;50.744;7.086;2023-04-10T09:10:20;14.70;99.90
15765;DHT22;7983;50.744;7.086;2023-04-10T09:12:47;14.70;99.90
15765;DHT22;7983;50.744;7.086;2023-04-10T09:15:15;14.80;99.90
15765;DHT22;7983;50.744;7.086;2023-04-10T09:18:00;14.90;99.90
15765;DHT22;7983;50.744;7.086;2023-04-10T09:20:30;14.90;99.90
15765;DHT22;7983;50.744;7.086;2023-04-10T09:22:56;14.90;99.90
15765;DHT22;7983;50.744;7.086;2023-04-10T09:25:39;15.00;99.90
15765;DHT22;7983;50.744;7.086;2023-04-10T09:28:07;15.10;99.90
15765;DHT22;7983;50.744;7.086;2023-04-10T09:30:41;15.20;99.90
15765;DHT22;7983;50.744;7.086;2023-04-10T09:33:20;15.20;99.90
15765;DHT22;7983;50.744;7.086;2023-04-10T09:35:49;15.30;99.90
15765;DHT22;7983;50.744;7.086;2023-04-10T09:38:18;15.40;99.90
15765;DHT22;7983;50.744;7.086;2023-04-10T09:40:45;15.50;99.90
15765;DHT22;7983;50.744;7.086;2023-04-10T09:43:24;15.50;99.90
15765;DHT22;7983;50.744;7.086;2023-04-10T09:45:55;15.60;99.90
15765;DHT22;7983;50.744;7.086;2023-04-10T09:48:24;15.70;99.90
15765;DHT22;7983;50.744;7.086;2023-04-10T09:50:54;15.70;99.90
15765;DHT22;7983;50.744;7.086;2023-04-10T09:53:20;15.70;99.90
15765;DHT22;7983;50.744;7.086;2023-04-10T09:55:49;15.80;99.90
15765;DHT22;7983;50.744;7.086;2023-04-10T09:58:15;15.80;99.90
15765;DHT22;7983;50.744;7.086;2023-04-10T10:00:46;15.90;99.90
15765;DHT22;7983;50.744;7.086;2023-04-10T10:03:16;16.10;99.90
15765;DHT22;7983;50.744;7.086;2023-04-10T10:05:52;16.30;99.90
15765;DHT22;7983;50.744;7.086;2023-04-10T10:08:18;16.50;99.90
15765;DHT22;7983;50.744;7.086;2023-04-10T10:10:53;16.80;99.90
15765;DHT22;7983;50.744;7.086;2023-04-10T10:13:34;17.00;99.90
15765;DHT22;7983;50.744;7.086;2023-04-10T10:16:11;17.20;99.90
15765;DHT22;7983;50.744;7.086;2023-04-10T10:18:44;17.40;99.90
15765;DHT22;7983;50.744;7.086;2023-04-10T10:21:15;17.60;99.90
15765;DHT22;7983;50.744;7.086;2023-04-10T10:23:44;17.70;99.90
15765;DHT22;7983;50.744;7.086;2023-04-10T10:26:11;17.90;99.90
15765;DHT22;7983;50.744;7.086;2023-04-10T10:28:40;18.10;99.90
15765;DHT22;7983;50.744;7.086;2023-04-10T10:31:07;18.20;99.90
15765;DHT22;7983;50.744;7.086;2023-04-10T10:33:37;18.30;99.90
15765;DHT22;7983;50.744;7.086;2023-04-10T10:36:06;18.50;99.90
15765;DHT22;7983;50.744;7.086;2023-04-10T10:38:33;18.70;99.90
15765;DHT22;7983;50.744;7.086;2023-04-10T10:41:09;19.00;99.90
15765;DHT22;7983;50.744;7.086;2023-04-10T10:44:18;19.30;99.90
15765;DHT22;7983;50.744;7.086;2023-04-10T10:47:39;19.50;93.10
15765;DHT22;7983;50.744;7.086;2023-04-10T10:52:48;19.90;99.90
15765;DHT22;7983;50.744;7.086;2023-04-10T10:57:53;20.10;99.30
15765;DHT22;7983;50.744;7.086;2023-04-10T11:00:23;20.10;99.90
15765;DHT22;7983;50.744;7.086;2023-04-10T11:11:30;20.20;93.00
15765;DHT22;7983;50.744;7.086;2023-04-10T11:14:16;20.20;91.20
15765;DHT22;7983;50.744;7.086;2023-04-10T11:16:47;20.20;99.90
15765;DHT22;7983;50.744;7.086;2023-04-10T11:19:15;20.10;97.20
15765;DHT22;7983;50.744;7.086;2023-04-10T11:22:05;20.10;98.40
15765;DHT22;7983;50.744;7.086;2023-04-10T11:25:08;20.10;97.40
15765;DHT22;7983;50.744;7.086;2023-04-10T11:27:39;20.10;97.50
15765;DHT22;7983;50.744;7.086;2023-04-10T11:32:52;20.10;96.50
15765;DHT22;7983;50.744;7.086;2023-04-10T11:35:18;20.10;98.80
15765;DHT22;7983;50.744;7.086;2023-04-10T11:37:44;20.10;97.90
15765;DHT22;7983;50.744;7.086;2023-04-10T11:40:12;20.10;97.90
15765;DHT22;7983;50.744;7.086;2023-04-10T11:42:38;20.10;97.70
15765;DHT22;7983;50.744;7.086;2023-04-10T11:45:26;20.10;98.60
15765;DHT22;7983;50.744;7.086;2023-04-10T11:47:55;20.10;92.10
15765;DHT22;7983;50.744;7.086;2023-04-10T11:50:21;20.00;95.20
15765;DHT22;7983;50.744;7.086;2023-04-10T11:52:49;20.00;95.00
15765;DHT22;7983;50.744;7.086;2023-04-10T11:55:16;19.90;93.30
15765;DHT22;7983;50.744;7.086;2023-04-10T11:57:44;19.90;93.30
15765;DHT22;7983;50.744;7.086;2023-04-10T12:00:10;19.80;90.00
15765;DHT22;7983;50.744;7.086;2023-04-10T12:02:49;19.80;92.60
15765;DHT22;7983;50.744;7.086;2023-04-10T12:05:18;19.70;83.60
15765;DHT22;7983;50.744;7.086;2023-04-10T12:07:48;19.60;90.70
15765;DHT22;7983;50.744;7.086;2023-04-10T12:10:14;19.60;90.50
15765;DHT22;7983;50.744;7.086;2023-04-10T12:12:40;19.50;93.50
15765;DHT22;7983;50.744;7.086;2023-04-10T12:15:28;19.50;92.80
15765;DHT22;7983;50.744;7.086;2023-04-10T12:17:54;19.50;90.50
15765;DHT22;7983;50.744;7.086;2023-04-10T12:20:21;19.50;91.90
15765;DHT22;7983;50.744;7.086;2023-04-10T12:22:53;19.50;94.30
15765;DHT22;7983;50.744;7.086;2023-04-10T12:25:23;19.60;93.00
15765;DHT22;7983;50.744;7.086;2023-04-10T12:27:49;19.70;90.80
15765;DHT22;7983;50.744;7.086;2023-04-10T12:30:20;19.70;91.60
15765;DHT22;7983;50.744;7.086;2023-04-10T12:32:52;19.80;91.00
15765;DHT22;7983;50.744;7.086;2023-04-10T12:35:39;19.80;79.00
15765;DHT22;7983;50.744;7.086;2023-04-10T12:38:07;19.90;83.90
15765;DHT22;7983;50.744;7.086;2023-04-10T12:40:35;19.90;92.30
15765;DHT22;7983;50.744;7.086;2023-04-10T12:43:04;20.00;92.00
15765;DHT22;7983;50.744;7.086;2023-04-10T12:45:44;20.10;93.30
15765;DHT22;7983;50.744;7.086;2023-04-10T12:48:10;20.20;86.00
15765;DHT22;7983;50.744;7.086;2023-04-10T12:50:46;20.30;92.50
15765;DHT22;7983;50.744;7.086;2023-04-10T12:53:15;20.40;87.40
15765;DHT22;7983;50.744;7.086;2023-04-10T12:55:40;20.40;92.00
15765;DHT22;7983;50.744;7.086;2023-04-10T12:58:19;20.50;92.60
15765;DHT22;7983;50.744;7.086;2023-04-10T13:00:46;20.70;90.00
15765;DHT22;7983;50.744;7.086;2023-04-10T13:03:12;20.90;94.10
15765;DHT22;7983;50.744;7.086;2023-04-10T13:05:38;21.00;93.80
15765;DHT22;7983;50.744;7.086;2023-04-10T13:08:03;21.10;93.50
15765;DHT22;7983;50.744;7.086;2023-04-10T13:10:29;21.20;92.80
15765;DHT22;7983;50.744;7.086;2023-04-10T13:12:59;21.30;92.30
15765;DHT22;7983;50.744;7.086;2023-04-10T13:15:27;21.40;90.80
15765;DHT22;7983;50.744;7.086;2023-04-10T13:17:53;21.40;90.10
15765;DHT22;7983;50.744;7.086;2023-04-10T13:20:21;21.30;89.90
15765;DHT22;7983;50.744;7.086;2023-04-10T13:22:49;21.30;89.80
15765;DHT22;7983;50.744;7.086;2023-04-10T13:25:15;21.20;90.60
15765;DHT22;7983;50.744;7.086;2023-04-10T13:27:40;21.10;90.30
15765;DHT22;7983;50.744;7.086;2023-04-10T13:30:06;21.00;88.90
15765;DHT22;7983;50.744;7.086;2023-04-10T13:32:32;21.00;86.60
15765;DHT22;7983;50.744;7.086;2023-04-10T13:34:58;21.00;86.60
15765;DHT22;7983;50.744;7.086;2023-04-10T13:37:27;21.00;89.70
15765;DHT22;7983;50.744;7.086;2023-04-10T13:39:52;21.00;87.90
15765;DHT22;7983;50.744;7.086;2023-04-10T13:42:18;21.10;90.60
15765;DHT22;7983;50.744;7.086;2023-04-10T13:44:44;21.10;91.30
15765;DHT22;7983;50.744;7.086;2023-04-10T13:47:13;21.20;91.60
15765;DHT22;7983;50.744;7.086;2023-04-10T13:49:41;21.30;91.20
15765;DHT22;7983;50.744;7.086;2023-04-10T13:52:06;21.40;89.60
15765;DHT22;7983;50.744;7.086;2023-04-10T13:54:32;21.40;90.90
15765;DHT22;7983;50.744;7.086;2023-04-10T13:56:58;21.40;86.40
15765;DHT22;7983;50.744;7.086;2023-04-10T13:59:27;21.40;86.80
15765;DHT22;7983;50.744;7.086;2023-04-10T14:01:52;21.50;87.90
15765;DHT22;7983;50.744;7.086;2023-04-10T14:04:18;21.50;90.20
15765;DHT22;7983;50.744;7.086;2023-04-10T14:06:46;21.60;89.50
15765;DHT22;7983;50.744;7.086;2023-04-10T14:09:11;21.60;88.30
15765;DHT22;7983;50.744;7.086;2023-04-10T14:11:39;21.60;89.20
15765;DHT22;7983;50.744;7.086;2023-04-10T14:14:07;21.70;82.90
15765;DHT22;7983;50.744;7.086;2023-04-10T14:16:33;21.70;84.10
15765;DHT22;7983;50.744;7.086;2023-04-10T14:19:01;21.70;86.10
15765;DHT22;7983;50.744;7.086;2023-04-10T14:21:29;21.80;87.50
15765;DHT22;7983;50.744;7.086;2023-04-10T14:23:58;21.80;89.30
15765;DHT22;7983;50.744;7.086;2023-04-10T14:26:26;21.90;88.20
15765;DHT22;7983;50.744;7.086;2023-04-10T14:28:51;21.90;86.90
15765;DHT22;7983;50.744;7.086;2023-04-10T14:31:17;22.00;85.90
15765;DHT22;7983;50.744;7.086;2023-04-10T14:33:42;22.00;86.00
15765;DHT22;7983;50.744;7.086;2023-04-10T14:36:10;22.00;80.40
15765;DHT22;7983;50.744;7.086;2023-04-10T14:38:36;21.90;80.20
15765;DHT22;7983;50.744;7.086;2023-04-10T14:41:02;21.80;83.00
15765;DHT22;7983;50.744;7.086;2023-04-10T14:43:30;21.80;71.70
15765;DHT22;7983;50.744;7.086;2023-04-10T14:45:58;21.70;69.80
15765;DHT22;7983;50.744;7.086;2023-04-10T14:48:24;21.60;73.50
15765;DHT22;7983;50.744;7.086;2023-04-10T14:50:51;21.50;74.10
15765;DHT22;7983;50.744;7.086;2023-04-10T14:53:17;21.40;70.70
15765;DHT22;7983;50.744;7.086;2023-04-10T14:55:43;21.30;71.00
15765;DHT22;7983;50.744;7.086;2023-04-10T14:58:08;21.30;75.20
15765;DHT22;7983;50.744;7.086;2023-04-10T15:00:35;21.20;73.10
15765;DHT22;7983;50.744;7.086;2023-04-10T15:03:01;21.20;71.10
15765;DHT22;7983;50.744;7.086;2023-04-10T15:05:26;21.20;69.80
15765;DHT22;7983;50.744;7.086;2023-04-10T15:07:53;21.20;72.00
15765;DHT22;7983;50.744;7.086;2023-04-10T15:10:21;21.20;73.30
15765;DHT22;7983;50.744;7.086;2023-04-10T15:12:50;21.20;75.70
15765;DHT22;7983;50.744;7.086;2023-04-10T15:15:18;21.30;73.50
15765;DHT22;7983;50.744;7.086;2023-04-10T15:17:43;21.30;70.50
15765;DHT22;7983;50.744;7.086;2023-04-10T15:20:10;21.30;71.50
15765;DHT22;7983;50.744;7.086;2023-04-10T15:22:38;21.20;70.80
15765;DHT22;7983;50.744;7.086;2023-04-10T15:25:04;21.10;72.90
15765;DHT22;7983;50.744;7.086;2023-04-10T15:27:30;21.10;72.50
15765;DHT22;7983;50.744;7.086;2023-04-10T15:29:58;21.00;71.00
15765;DHT22;7983;50.744;7.086;2023-04-10T15:32:26;21.00;70.10
15765;DHT22;7983;50.744;7.086;2023-04-10T15:34:54;20.90;72.10
15765;DHT22;7983;50.744;7.086;2023-04-10T15:37:22;20.80;71.00
15765;DHT22;7983;50.744;7.086;2023-04-10T15:39:49;20.70;71.40
15765;DHT22;7983;50.744;7.086;2023-04-10T15:42:19;20.60;73.00
15765;DHT22;7983;50.744;7.086;2023-04-10T15:44:45;20.50;71.70
15765;DHT22;7983;50.744;7.086;2023-04-10T15:47:11;20.50;70.90
15765;DHT22;7983;50.744;7.086;2023-04-10T15:49:37;20.40;69.00
15765;DHT22;7983;50.744;7.086;2023-04-10T15:52:04;20.30;71.60
15765;DHT22;7983;50.744;7.086;2023-04-10T15:54:32;20.20;69.50
15765;DHT22;7983;50.744;7.086;2023-04-10T15:57:00;20.10;69.20
15765;DHT22;7983;50.744;7.086;2023-04-10T15:59:28;20.00;70.20
15765;DHT22;7983;50.744;7.086;2023-04-10T16:01:54;19.90;71.30
15765;DHT22;7983;50.744;7.086;2023-04-10T16:04:20;19.90;73.50
15765;DHT22;7983;50.744;7.086;2023-04-10T16:06:50;19.80;72.00
15765;DHT22;7983;50.744;7.086;2023-04-10T16:09:16;19.70;70.90
15765;DHT22;7983;50.744;7.086;2023-04-10T16:11:44;19.60;74.20
15765;DHT22;7983;50.744;7.086;2023-04-10T16:14:12;19.60;75.40
15765;DHT22;7983;50.744;7.086;2023-04-10T16:16:38;19.50;76.20
15765;DHT22;7983;50.744;7.086;2023-04-10T16:19:04;19.40;74.30
15765;DHT22;7983;50.744;7.086;2023-04-10T16:21:30;19.40;76.10
15765;DHT22;7983;50.744;7.086;2023-04-10T16:23:58;19.30;74.10
15765;DHT22;7983;50.744;7.086;2023-04-10T16:26:26;19.30;73.80